sensor_id;sensor_type;location;lat;lon;timestamp;pressure;altitude;pressure_sealevel;temperature;humidity
45323;BME280;31382;50.200;8.674;2023-04-28T00:04:25;100164.13;;;14.95;48.07
45323;BME280;31382;50.200;8.674;2023-04-28T00:09:27;100156.84;;;14.88;48.28
45323;BME280;31382;50.200;8.674;2023-04-28T00:14:28;100148.97;;;14.87;48.33
45323;BME280;31382;50.200;8.674;2023-04-28T00:19:30;100137.53;;;14.85;48.60
45323;BME280;31382;50.200;8.674;2023-04-28T00:24:31;100126.91;;;14.83;48.46
45323;BME280;31382;50.200;8.674;2023-04-28T00:29:33;100120.25;;;14.79;48.81
45323;BME280;31382;50.200;8.674;2023-04-28T00:34:35;100122.53;;;14.76;48.76
45323;BME280;31382;50.200;8.674;2023-04-28T00:39:37;100114.63;;;14.67;49.13
45323;BME280;31382;50.200;8.674;2023-04-28T00:44:38;100108.59;;;14.65;49.31
45323;BME280;31382;50.200;8.674;2023-04-28T00:49:41;100101.72;;;14.63;49.70
45323;BME280;31382;50.200;8.674;2023-04-28T00:54:43;100098.38;;;14.61;49.89
45323;BME280;31382;50.200;8.674;2023-04-28T00:59:44;100096.72;;;14.60;50.34
45323;BME280;31382;50.200;8.674;2023-04-28T01:04:46;100092.34;;;14.52;50.30
45323;BME280;31382;50.200;8.674;2023-04-28T01:09:48;100078.59;;;14.54;50.49
45323;BME280;31382;50.200;8.674;2023-04-28T01:14:49;100070.69;;;14.52;50.92
45323;BME280;31382;50.200;8.674;2023-04-28T01:19:51;100065.69;;;14.56;50.60
45323;BME280;31382;50.200;8.674;2023-04-28T01:24:53;100065.69;;;14.56;50.93
45323;BME280;31382;50.200;8.674;2023-04-28T01:29:54;100059.06;;;14.52;50.74
45323;BME280;31382;50.200;8.674;2023-04-28T01:34:57;100050.06;;;14.51;50.86
45323;BME280;31382;50.200;8.674;2023-04-28T01:39:58;100049.06;;;14.52;51.17
45323;BME280;31382;50.200;8.674;2023-04-28T01:45:00;100049.25;;;14.51;51.63
45323;BME280;31382;50.200;8.674;2023-04-28T01:50:01;100043.44;;;14.47;51.81
45323;BME280;31382;50.200;8.674;2023-04-28T01:55:03;100038.25;;;14.45;52.31
45323;BME280;31382;50.200;8.674;2023-04-28T02:00:05;100022.22;;;14.44;52.34
45323;BME280;31382;50.200;8.674;2023-04-28T02:05:07;100019.53;;;14.44;52.56
45323;BME280;31382;50.200;8.674;2023-04-28T02:10:09;100032.00;;;14.38;52.54
45323;BME280;31382;50.200;8.674;2023-04-28T02:15:10;100043.63;;;13.92;53.34
45323;BME280;31382;50.200;8.674;2023-04-28T02:20:12;100044.34;;;13.46;54.77
45323;BME280;31382;50.200;8.674;2023-04-28T02:25:14;100042.00;;;13.29;55.31
45323;BME280;31382;50.200;8.674;2023-04-28T02:30:16;100048.53;;;13.14;56.64
45323;BME280;31382;50.200;8.674;2023-04-28T02:35:17;100039.47;;;12.86;57.58
45323;BME280;31382;50.200;8.674;2023-04-28T02:40:19;100013.38;;;12.94;58.57
45323;BME280;31382;50.200;8.674;2023-04-28T02:45:20;100008.81;;;13.01;59.19
45323;BME280;31382;50.200;8.674;2023-04-28T02:50:22;100016.47;;;12.97;59.70
45323;BME280;31382;50.200;8.674;2023-04-28T02:55:23;100027.41;;;12.82;60.24
45323;BME280;31382;50.200;8.674;2023-04-28T03:00:25;100015.34;;;12.78;60.73
45323;BME280;31382;50.200;8.674;2023-04-28T03:05:26;99997.28;;;12.79;61.11
45323;BME280;31382;50.200;8.674;2023-04-28T03:10:28;99995.66;;;12.84;61.20
45323;BME280;31382;50.200;8.674;2023-04-28T03:15:29;99990.25;;;12.78;61.70
45323;BME280;31382;50.200;8.674;2023-04-28T03:20:30;99988.84;;;12.88;62.17
45323;BME280;31382;50.200;8.674;2023-04-28T03:25:32;99976.81;;;12.91;62.31
45323;BME280;31382;50.200;8.674;2023-04-28T03:30:33;99978.88;;;12.89;62.76
45323;BME280;31382;50.200;8.674;2023-04-28T03:35:35;99977.16;;;12.75;62.92
45323;BME280;31382;50.200;8.674;2023-04-28T03:40:36;99960.69;;;12.63;62.90
45323;BME280;31382;50.200;8.674;2023-04-28T03:45:39;99950.63;;;12.78;62.99
45323;BME280;31382;50.200;8.674;2023-04-28T03:50:40;99955.22;;;12.91;63.07
45323;BME280;31382;50.200;8.674;2023-04-28T03:55:43;99943.97;;;12.81;63.41
45323;BME280;31382;50.200;8.674;2023-04-28T04:00:44;99930.75;;;12.93;63.78
45323;BME280;31382;50.200;8.674;2023-04-28T04:05:46;99927.88;;;13.01;63.60
45323;BME280;31382;50.200;8.674;2023-04-28T04:10:48;99934.88;;;12.88;63.80
45323;BME280;31382;50.200;8.674;2023-04-28T04:15:50;99932.44;;;13.00;64.01
45323;BME280;31382;50.200;8.674;2023-04-28T04:20:53;99919.63;;;13.16;63.70
45323;BME280;31382;50.200;8.674;2023-04-28T04:25:56;99919.19;;;13.19;63.83
45323;BME280;31382;50.200;8.674;2023-04-28T04:30:57;99936.63;;;13.09;64.36
45323;BME280;31382;50.200;8.674;2023-04-28T04:35:58;99921.47;;;13.08;64.70
45323;BME280;31382;50.200;8.674;2023-04-28T04:41:00;99925.22;;;13.14;64.49
45323;BME280;31382;50.200;8.674;2023-04-28T04:46:01;99936.97;;;12.93;65.22
45323;BME280;31382;50.200;8.674;2023-04-28T04:51:04;99947.31;;;12.83;66.13
45323;BME280;31382;50.200;8.674;2023-04-28T04:56:06;99958.06;;;12.76;66.39
45323;BME280;31382;50.200;8.674;2023-04-28T05:01:08;99961.88;;;12.54;66.98
45323;BME280;31382;50.200;8.674;2023-04-28T05:06:09;99961.59;;;12.42;67.80
45323;BME280;31382;50.200;8.674;2023-04-28T05:11:10;99952.97;;;12.53;67.75
45323;BME280;31382;50.200;8.674;2023-04-28T05:16:12;99957.53;;;12.53;67.71
45323;BME280;31382;50.200;8.674;2023-04-28T05:21:13;99946.75;;;12.53;68.08
45323;BME280;31382;50.200;8.674;2023-04-28T05:26:15;99937.78;;;12.45;68.53
45323;BME280;31382;50.200;8.674;2023-04-28T05:31:16;99932.38;;;12.45;68.82
45323;BME280;31382;50.200;8.674;2023-04-28T05:36:18;99933.44;;;12.44;68.51
45323;BME280;31382;50.200;8.674;2023-04-28T05:41:19;99926.56;;;12.42;68.43
45323;BME280;31382;50.200;8.674;2023-04-28T05:46:21;99935.91;;;12.46;68.89
45323;BME280;31382;50.200;8.674;2023-04-28T05:51:29;99947.06;;;12.36;69.40
45323;BME280;31382;50.200;8.674;2023-04-28T05:56:30;99949.19;;;12.47;69.20
45323;BME280;31382;50.200;8.674;2023-04-28T06:01:32;99957.53;;;12.53;69.29
45323;BME280;31382;50.200;8.674;2023-04-28T06:06:33;99957.91;;;12.49;69.11
45323;BME280;31382;50.200;8.674;2023-04-28T06:11:35;99981.97;;;12.44;69.18
45323;BME280;31382;50.200;8.674;2023-04-28T06:16:36;99984.81;;;12.36;70.24
45323;BME280;31382;50.200;8.674;2023-04-28T06:21:37;99979.50;;;12.21;70.20
45323;BME280;31382;50.200;8.674;2023-04-28T06:26:39;99987.97;;;12.18;70.88
45323;BME280;31382;50.200;8.674;2023-04-28T06:31:40;99982.94;;;12.08;71.16
45323;BME280;31382;50.200;8.674;2023-04-28T06:36:42;99982.88;;;12.02;71.27
45323;BME280;31382;50.200;8.674;2023-04-28T06:41:43;99979.50;;;11.93;71.32
45323;BME280;31382;50.200;8.674;2023-04-28T06:46:45;99978.13;;;12.04;71.40
45323;BME280;31382;50.200;8.674;2023-04-28T06:51:46;99978.94;;;12.04;71.32
45323;BME280;31382;50.200;8.674;2023-04-28T06:56:48;99977.09;;;12.05;71.85
45323;BME280;31382;50.200;8.674;2023-04-28T07:01:49;99957.50;;;12.18;71.69
45323;BME280;31382;50.200;8.674;2023-04-28T07:06:51;99966.03;;;12.21;72.16
45323;BME280;31382;50.200;8.674;2023-04-28T07:11:52;99959.41;;;12.24;71.69
45323;BME280;31382;50.200;8.674;2023-04-28T07:16:54;99959.66;;;12.29;72.15
45323;BME280;31382;50.200;8.674;2023-04-28T07:21:55;99939.97;;;12.28;72.22
45323;BME280;31382;50.200;8.674;2023-04-28T07:26:57;99939.63;;;12.38;72.21
45323;BME280;31382;50.200;8.674;2023-04-28T07:32:01;99927.41;;;12.42;72.31
45323;BME280;31382;50.200;8.674;2023-04-28T07:37:07;99930.16;;;12.56;71.91
45323;BME280;31382;50.200;8.674;2023-04-28T07:42:09;99923.75;;;12.57;72.35
45323;BME280;31382;50.200;8.674;2023-04-28T07:47:11;99910.72;;;12.67;72.64
45323;BME280;31382;50.200;8.674;2023-04-28T07:52:12;99903.31;;;12.82;72.24
45323;BME280;31382;50.200;8.674;2023-04-28T07:57:14;99905.84;;;12.97;71.76
45323;BME280;31382;50.200;8.674;2023-04-28T08:02:15;99911.88;;;12.99;72.05
45323;BME280;31382;50.200;8.674;2023-04-28T08:07:17;99915.22;;;13.01;72.34
45323;BME280;31382;50.200;8.674;2023-04-28T08:12:18;99922.53;;;13.14;72.20
45323;BME280;31382;50.200;8.674;2023-04-28T08:17:20;99928.53;;;13.09;71.84
45323;BME280;31382;50.200;8.674;2023-04-28T08:22:22;99936.16;;;12.93;72.59
45323;BME280;31382;50.200;8.674;2023-04-28T08:27:23;99944.25;;;12.93;72.23
45323;BME280;31382;50.200;8.674;2023-04-28T08:32:25;99945.69;;;12.88;72.11
45323;BME280;31382;50.200;8.674;2023-04-28T08:37:27;99952.25;;;12.79;72.55
45323;BME280;31382;50.200;8.674;2023-04-28T08:42:29;99942.72;;;12.77;72.81
45323;BME280;31382;50.200;8.674;2023-04-28T08:47:33;99935.59;;;13.10;72.14
45323;BME280;31382;50.200;8.674;2023-04-28T08:52:35;99943.50;;;13.19;71.66
45323;BME280;31382;50.200;8.674;2023-04-28T08:57:39;99937.69;;;13.22;72.00
45323;BME280;31382;50.200;8.674;2023-04-28T09:02:43;99948.75;;;13.34;72.40
45323;BME280;31382;50.200;8.674;2023-04-28T09:07:45;99947.25;;;13.18;72.88
45323;BME280;31382;50.200;8.674;2023-04-28T09:12:51;99945.44;;;13.32;72.39
45323;BME280;31382;50.200;8.674;2023-04-28T09:17:52;99945.88;;;13.48;72.43
45323;BME280;31382;50.200;8.674;2023-04-28T09:22:55;99949.66;;;13.61;72.36
45323;BME280;31382;50.200;8.674;2023-04-28T09:27:57;99935.94;;;13.76;72.23
45323;BME280;31382;50.200;8.674;2023-04-28T09:33:03;99934.28;;;13.75;72.16
45323;BME280;31382;50.200;8.674;2023-04-28T09:38:05;99938.88;;;13.81;72.57
45323;BME280;31382;50.200;8.674;2023-04-28T09:43:22;99942.19;;;13.96;71.91
45323;BME280;31382;50.200;8.674;2023-04-28T09:48:35;99944.47;;;14.06;71.91
45323;BME280;31382;50.200;8.674;2023-04-28T09:53:38;99944.28;;;13.94;71.94
45323;BME280;31382;50.200;8.674;2023-04-28T09:58:42;99941.34;;;14.02;72.10
45323;BME280;31382;50.200;8.674;2023-04-28T10:03:45;99934.91;;;14.17;72.17
45323;BME280;31382;50.200;8.674;2023-04-28T10:08:47;99927.34;;;14.59;71.32
45323;BME280;31382;50.200;8.674;2023-04-28T10:13:48;99936.69;;;14.63;71.67
45323;BME280;31382;50.200;8.674;2023-04-28T10:18:50;99927.09;;;15.19;71.34
45323;BME280;31382;50.200;8.674;2023-04-28T10:24:08;99915.69;;;15.42;71.29
45323;BME280;31382;50.200;8.674;2023-04-28T10:29:10;99915.88;;;15.79;70.86
45323;BME280;31382;50.200;8.674;2023-04-28T10:34:21;99909.75;;;15.90;70.66
45323;BME280;31382;50.200;8.674;2023-04-28T10:39:23;99910.16;;;16.12;70.49
45323;BME280;31382;50.200;8.674;2023-04-28T10:55:30;99891.75;;;16.58;69.15
45323;BME280;31382;50.200;8.674;2023-04-28T11:00:37;99890.88;;;17.13;68.02
45323;BME280;31382;50.200;8.674;2023-04-28T11:11:31;99876.28;;;17.37;67.93
45323;BME280;31382;50.200;8.674;2023-04-28T11:16:47;99874.06;;;17.34;67.46
45323;BME280;31382;50.200;8.674;2023-04-28T11:21:51;99874.09;;;17.16;67.37
45323;BME280;31382;50.200;8.674;2023-04-28T11:26:52;99877.72;;;17.40;67.02
45323;BME280;31382;50.200;8.674;2023-04-28T11:31:54;99876.75;;;17.34;66.96
45323;BME280;31382;50.200;8.674;2023-04-28T11:36:56;99872.28;;;17.40;67.08
45323;BME280;31382;50.200;8.674;2023-04-28T11:41:59;99870.78;;;17.56;66.60
45323;BME280;31382;50.200;8.674;2023-04-28T11:47:03;99862.66;;;17.68;66.18
45323;BME280;31382;50.200;8.674;2023-04-28T11:52:06;99854.06;;;17.94;65.75
45323;BME280;31382;50.200;8.674;2023-04-28T11:57:19;99835.59;;;18.20;65.40
45323;BME280;31382;50.200;8.674;2023-04-28T12:02:26;99840.84;;;18.50;65.41
45323;BME280;31382;50.200;8.674;2023-04-28T12:07:41;99847.47;;;18.95;64.40
45323;BME280;31382;50.200;8.674;2023-04-28T12:12:44;99844.22;;;19.27;64.56
45323;BME280;31382;50.200;8.674;2023-04-28T12:17:53;99846.34;;;19.87;64.09
45323;BME280;31382;50.200;8.674;2023-04-28T12:22:54;99839.56;;;20.12;63.20
45323;BME280;31382;50.200;8.674;2023-04-28T12:28:01;99835.09;;;20.45;61.79
45323;BME280;31382;50.200;8.674;2023-04-28T12:33:03;99832.16;;;20.68;62.02
45323;BME280;31382;50.200;8.674;2023-04-28T12:38:05;99836.09;;;20.77;60.82
45323;BME280;31382;50.200;8.674;2023-04-28T12:43:06;99833.22;;;20.89;60.37
45323;BME280;31382;50.200;8.674;2023-04-28T12:48:08;99832.69;;;21.19;59.93
45323;BME280;31382;50.200;8.674;2023-04-28T12:53:09;99833.97;;;21.12;59.82
45323;BME280;31382;50.200;8.674;2023-04-28T12:58:11;99819.28;;;21.50;59.08
45323;BME280;31382;50.200;8.674;2023-04-28T13:03:13;99837.63;;;21.87;58.50
45323;BME280;31382;50.200;8.674;2023-04-28T13:08:16;99827.69;;;21.76;58.31
45323;BME280;31382;50.200;8.674;2023-04-28T13:13:17;99819.28;;;22.30;57.40
45323;BME280;31382;50.200;8.674;2023-04-28T13:18:19;99803.59;;;22.99;56.39
45323;BME280;31382;50.200;8.674;2023-04-28T13:23:20;99808.59;;;23.53;55.15
45323;BME280;31382;50.200;8.674;2023-04-28T13:28:22;99817.66;;;23.64;54.63
45323;BME280;31382;50.200;8.674;2023-04-28T13:33:24;99795.97;;;23.37;54.28
45323;BME280;31382;50.200;8.674;2023-04-28T13:38:32;99793.50;;;23.51;53.18
45323;BME280;31382;50.200;8.674;2023-04-28T13:43:33;99792.97;;;23.23;53.34
45323;BME280;31382;50.200;8.674;2023-04-28T13:48:35;99772.53;;;22.52;54.36
45323;BME280;31382;50.200;8.674;2023-04-28T13:53:36;99768.63;;;22.33;55.05
45323;BME280;31382;50.200;8.674;2023-04-28T13:58:41;99771.22;;;22.02;55.29
45323;BME280;31382;50.200;8.674;2023-04-28T14:03:42;99769.19;;;21.82;55.53
45323;BME280;31382;50.200;8.674;2023-04-28T14:08:45;99777.75;;;21.53;55.55
45323;BME280;31382;50.200;8.674;2023-04-28T14:13:46;99777.09;;;21.41;55.92
45323;BME280;31382;50.200;8.674;2023-04-28T14:18:48;99775.59;;;21.23;56.20
45323;BME280;31382;50.200;8.674;2023-04-28T14:23:50;99798.19;;;20.86;57.45
45323;BME280;31382;50.200;8.674;2023-04-28T14:28:51;99795.94;;;20.56;58.04
45323;BME280;31382;50.200;8.674;2023-04-28T14:33:54;99784.44;;;20.54;57.83
45323;BME280;31382;50.200;8.674;2023-04-28T14:38:56;99793.72;;;20.09;59.56
45323;BME280;31382;50.200;8.674;2023-04-28T14:43:58;99782.84;;;19.41;62.46
45323;BME280;31382;50.200;8.674;2023-04-28T14:49:00;99771.13;;;19.07;64.62
45323;BME280;31382;50.200;8.674;2023-04-28T14:54:02;99781.13;;;18.72;66.36
45323;BME280;31382;50.200;8.674;2023-04-28T14:59:04;99776.03;;;18.64;67.00
45323;BME280;31382;50.200;8.674;2023-04-28T15:04:06;99765.31;;;18.57;67.28
45323;BME280;31382;50.200;8.674;2023-04-28T15:09:07;99773.19;;;18.71;67.46
45323;BME280;31382;50.200;8.674;2023-04-28T15:14:09;99777.22;;;18.68;67.39
45323;BME280;31382;50.200;8.674;2023-04-28T15:19:10;99766.34;;;18.68;67.59
45323;BME280;31382;50.200;8.674;2023-04-28T15:24:13;99755.88;;;18.77;67.65
45323;BME280;31382;50.200;8.674;2023-04-28T15:29:15;99758.91;;;18.92;67.73
45323;BME280;31382;50.200;8.674;2023-04-28T15:34:17;99757.69;;;19.00;67.87
45323;BME280;31382;50.200;8.674;2023-04-28T15:39:18;99756.09;;;19.21;67.59
45323;BME280;31382;50.200;8.674;2023-04-28T15:44:20;99765.44;;;19.25;67.55
45323;BME280;31382;50.200;8.674;2023-04-28T15:49:21;99752.81;;;19.36;67.70
45323;BME280;31382;50.200;8.674;2023-04-28T15:54:24;99754.19;;;19.38;67.70
45323;BME280;31382;50.200;8.674;2023-04-28T15:59:25;99746.44;;;19.30;67.77
45323;BME280;31382;50.200;8.674;2023-04-28T16:04:26;99753.38;;;19.38;67.30
45323;BME280;31382;50.200;8.674;2023-04-28T16:09:28;99764.72;;;19.30;67.54
45323;BME280;31382;50.200;8.674;2023-04-28T16:14:30;99737.94;;;19.27;67.91
45323;BME280;31382;50.200;8.674;2023-04-28T16:19:33;99762.22;;;19.11;68.01
45323;BME280;31382;50.200;8.674;2023-04-28T16:24:34;99763.13;;;19.00;68.13
45323;BME280;31382;50.200;8.674;2023-04-28T16:29:42;99747.44;;;19.07;68.16
45323;BME280;31382;50.200;8.674;2023-04-28T16:34:43;99708.38;;;19.35;67.98
45323;BME280;31382;50.200;8.674;2023-04-28T16:39:45;99708.56;;;20.07;67.27
45323;BME280;31382;50.200;8.674;2023-04-28T16:44:46;99690.63;;;20.65;66.76
45323;BME280;31382;50.200;8.674;2023-04-28T16:49:50;99679.66;;;21.30;65.93
45323;BME280;31382;50.200;8.674;2023-04-28T16:54:52;99689.75;;;21.67;65.03
45323;BME280;31382;50.200;8.674;2023-04-28T16:59:53;99702.31;;;21.63;64.03
45323;BME280;31382;50.200;8.674;2023-04-28T17:04:54;99695.81;;;21.31;64.00
45323;BME280;31382;50.200;8.674;2023-04-28T17:09:57;99684.44;;;21.07;63.26
45323;BME280;31382;50.200;8.674;2023-04-28T17:14:58;99683.88;;;20.73;63.93
45323;BME280;31382;50.200;8.674;2023-04-28T17:19:59;99710.84;;;20.64;63.57
45323;BME280;31382;50.200;8.674;2023-04-28T17:25:02;99706.50;;;20.68;63.76
45323;BME280;31382;50.200;8.674;2023-04-28T17:30:08;99713.06;;;21.37;62.78
45323;BME280;31382;50.200;8.674;2023-04-28T17:35:11;99697.53;;;21.90;63.50
45323;BME280;31382;50.200;8.674;2023-04-28T17:40:12;99701.28;;;22.32;62.19
45323;BME280;31382;50.200;8.674;2023-04-28T17:45:14;99697.28;;;21.97;62.07
45323;BME280;31382;50.200;8.674;2023-04-28T17:50:16;99707.59;;;21.79;61.28
45323;BME280;31382;50.200;8.674;2023-04-28T17:55:17;99706.59;;;21.43;61.34
45323;BME280;31382;50.200;8.674;2023-04-28T18:00:19;99715.38;;;21.18;62.04
45323;BME280;31382;50.200;8.674;2023-04-28T18:05:21;99711.09;;;20.95;62.47
45323;BME280;31382;50.200;8.674;2023-04-28T18:10:26;99726.91;;;20.60;63.20
45323;BME280;31382;50.200;8.674;2023-04-28T18:15:28;99727.13;;;20.10;64.46
45323;BME280;31382;50.200;8.674;2023-04-28T18:20:30;99735.72;;;19.96;64.56
45323;BME280;31382;50.200;8.674;2023-04-28T18:25:32;99736.19;;;19.71;65.20
45323;BME280;31382;50.200;8.674;2023-04-28T18:30:33;99742.09;;;19.68;64.86
45323;BME280;31382;50.200;8.674;2023-04-28T18:35:38;99753.88;;;19.52;65.51
45323;BME280;31382;50.200;8.674;2023-04-28T18:40:39;99757.59;;;19.46;65.55
45323;BME280;31382;50.200;8.674;2023-04-28T18:45:41;99761.47;;;19.33;65.59
45323;BME280;31382;50.200;8.674;2023-04-28T18:50:44;99757.69;;;19.17;65.92
45323;BME280;31382;50.200;8.674;2023-04-28T18:55:48;99765.59;;;19.01;66.21
45323;BME280;31382;50.200;8.674;2023-04-28T19:00:51;99774.31;;;18.87;66.40
45323;BME280;31382;50.200;8.674;2023-04-28T19:05:52;99767.88;;;18.64;66.81
45323;BME280;31382;50.200;8.674;2023-04-28T19:10:56;99772.47;;;18.47;67.04
45323;BME280;31382;50.200;8.674;2023-04-28T19:15:58;99800.41;;;18.30;67.23
45323;BME280;31382;50.200;8.674;2023-04-28T19:21:00;99821.91;;;18.03;67.89
45323;BME280;31382;50.200;8.674;2023-04-28T19:26:02;99822.81;;;17.97;68.07
45323;BME280;31382;50.200;8.674;2023-04-28T19:31:04;99820.25;;;17.90;68.17
45323;BME280;31382;50.200;8.674;2023-04-28T19:36:06;99828.59;;;17.65;68.72
45323;BME280;31382;50.200;8.674;2023-04-28T19:41:09;99845.34;;;17.38;68.92
45323;BME280;31382;50.200;8.674;2023-04-28T19:46:11;99843.16;;;17.17;69.48
45323;BME280;31382;50.200;8.674;2023-04-28T19:51:13;99859.25;;;17.18;69.37
45323;BME280;31382;50.200;8.674;2023-04-28T19:56:14;99869.84;;;17.08;69.95
45323;BME280;31382;50.200;8.674;2023-04-28T20:01:16;99879.25;;;17.05;69.74
45323;BME280;31382;50.200;8.674;2023-04-28T20:06:17;99881.84;;;17.00;69.46
45323;BME280;31382;50.200;8.674;2023-04-28T20:11:19;99894.19;;;16.84;70.07
45323;BME280;31382;50.200;8.674;2023-04-28T20:16:22;99892.09;;;16.80;70.17
45323;BME280;31382;50.200;8.674;2023-04-28T20:21:25;99895.13;;;16.72;70.37
45323;BME280;31382;50.200;8.674;2023-04-28T20:26:27;99903.50;;;16.52;70.66
45323;BME280;31382;50.200;8.674;2023-04-28T20:31:29;99912.38;;;16.40;70.83
45323;BME280;31382;50.200;8.674;2023-04-28T20:36:30;99893.84;;;16.37;70.89
45323;BME280;31382;50.200;8.674;2023-04-28T20:41:33;99897.78;;;16.41;70.47
45323;BME280;31382;50.200;8.674;2023-04-28T20:46:36;99890.84;;;16.45;70.06
45323;BME280;31382;50.200;8.674;2023-04-28T20:51:41;99883.91;;;16.50;69.25
45323;BME280;31382;50.200;8.674;2023-04-28T20:56:44;99894.38;;;16.46;69.24
45323;BME280;31382;50.200;8.674;2023-04-28T21:01:45;99898.81;;;16.40;68.84
45323;BME280;31382;50.200;8.674;2023-04-28T21:06:47;99900.53;;;16.35;68.56
45323;BME280;31382;50.200;8.674;2023-04-28T21:11:50;99900.41;;;16.30;68.31
45323;BME280;31382;50.200;8.674;2023-04-28T21:16:51;99905.75;;;16.18;68.05
45323;BME280;31382;50.200;8.674;2023-04-28T21:21:53;99894.06;;;16.17;67.64
45323;BME280;31382;50.200;8.674;2023-04-28T21:26:54;99902.66;;;16.14;67.08
45323;BME280;31382;50.200;8.674;2023-04-28T21:31:56;99898.50;;;16.12;66.93
45323;BME280;31382;50.200;8.674;2023-04-28T21:36:57;99906.03;;;16.10;66.55
45323;BME280;31382;50.200;8.674;2023-04-28T21:41:59;99911.22;;;16.11;66.07
45323;BME280;31382;50.200;8.674;2023-04-28T21:47:00;99910.38;;;16.11;65.67
45323;BME280;31382;50.200;8.674;2023-04-28T21:52:01;99915.00;;;16.10;65.32
45323;BME280;31382;50.200;8.674;2023-04-28T21:57:05;99912.34;;;16.03;65.40
45323;BME280;31382;50.200;8.674;2023-04-28T22:02:06;99922.69;;;15.88;65.73
45323;BME280;31382;50.200;8.674;2023-04-28T22:07:08;99914.88;;;15.73;65.88
45323;BME280;31382;50.200;8.674;2023-04-28T22:12:09;99933.91;;;15.60;65.98
45323;BME280;31382;50.200;8.674;2023-04-28T22:17:11;99933.66;;;15.36;66.20
45323;BME280;31382;50.200;8.674;2023-04-28T22:22:12;99930.84;;;15.24;66.34
45323;BME280;31382;50.200;8.674;2023-04-28T22:27:13;99929.84;;;15.12;66.32
45323;BME280;31382;50.200;8.674;2023-04-28T22:32:15;99939.06;;;14.98;66.74
45323;BME280;31382;50.200;8.674;2023-04-28T22:37:16;99935.34;;;14.92;66.74
45323;BME280;31382;50.200;8.674;2023-04-28T22:42:18;99935.78;;;14.82;67.03
45323;BME280;31382;50.200;8.674;2023-04-28T22:47:19;99926.84;;;14.82;67.05
45323;BME280;31382;50.200;8.674;2023-04-28T22:52:21;99932.72;;;14.72;67.20
45323;BME280;31382;50.200;8.674;2023-04-28T22:57:23;99930.25;;;14.64;67.41
45323;BME280;31382;50.200;8.674;2023-04-28T23:02:24;99937.13;;;14.60;67.26
45323;BME280;31382;50.200;8.674;2023-04-28T23:07:26;99940.41;;;14.55;67.59
45323;BME280;31382;50.200;8.674;2023-04-28T23:12:28;99940.47;;;14.62;67.27
45323;BME280;31382;50.200;8.674;2023-04-28T23:17:29;99937.50;;;14.70;67.13
45323;BME280;31382;50.200;8.674;2023-04-28T23:22:31;99943.75;;;14.77;66.88
45323;BME280;31382;50.200;8.674;2023-04-28T23:27:32;99941.16;;;14.96;66.64
45323;BME280;31382;50.200;8.674;2023-04-28T23:32:33;99933.75;;;15.16;65.97
45323;BME280;31382;50.200;8.674;2023-04-28T23:37:35;99941.81;;;15.30;65.60
45323;BME280;31382;50.200;8.674;2023-04-28T23:42:36;99937.97;;;15.44;64.71
45323;BME280;31382;50.200;8.674;2023-04-28T23:47:38;99937.28;;;15.55;64.35
45323;BME280;31382;50.200;8.674;2023-04-28T23:52:40;99929.25;;;15.74;63.70
45323;BME280;31382;50.200;8.674;2023-04-28T23:57:42;99925.28;;;15.76;63.93
